sensor_id;sensor_type;location;lat;lon;timestamp;temperature;humidity
75786;DHT22;64402;44.708;37.644;2023-07-24T00:01:39;22.91;85.29
75786;DHT22;64402;44.708;37.644;2023-07-24T00:04:05;22.84;85.29
75786;DHT22;64402;44.708;37.644;2023-07-24T00:06:31;22.82;85.01
75786;DHT22;64402;44.708;37.644;2023-07-24T00:08:58;22.79;85.35
75786;DHT22;64402;44.708;37.644;2023-07-24T00:11:24;22.77;85.21
75786;DHT22;64402;44.708;37.644;2023-07-24T00:13:50;22.69;85.61
75786;DHT22;64402;44.708;37.644;2023-07-24T00:16:16;22.65;85.88
75786;DHT22;64402;44.708;37.644;2023-07-24T00:18:42;22.58;85.78
75786;DHT22;64402;44.708;37.644;2023-07-24T00:21:08;22.57;85.64
75786;DHT22;64402;44.708;37.644;2023-07-24T00:23:34;22.56;85.87
75786;DHT22;64402;44.708;37.644;2023-07-24T00:26:00;22.55;85.80
75786;DHT22;64402;44.708;37.644;2023-07-24T00:28:26;22.52;85.87
75786;DHT22;64402;44.708;37.644;2023-07-24T00:30:53;22.51;85.71
75786;DHT22;64402;44.708;37.644;2023-07-24T00:33:19;22.53;85.85
75786;DHT22;64402;44.708;37.644;2023-07-24T00:35:45;22.52;85.80
75786;DHT22;64402;44.708;37.644;2023-07-24T00:38:11;22.54;85.90
75786;DHT22;64402;44.708;37.644;2023-07-24T00:40:37;22.56;85.71
75786;DHT22;64402;44.708;37.644;2023-07-24T00:43:03;22.61;85.54
75786;DHT22;64402;44.708;37.644;2023-07-24T00:45:29;22.60;85.40
75786;DHT22;64402;44.708;37.644;2023-07-24T00:47:55;22.63;85.62
75786;DHT22;64402;44.708;37.644;2023-07-24T00:50:22;22.62;85.61
75786;DHT22;64402;44.708;37.644;2023-07-24T00:52:48;22.60;85.56
75786;DHT22;64402;44.708;37.644;2023-07-24T00:55:15;22.60;86.03
75786;DHT22;64402;44.708;37.644;2023-07-24T00:57:42;22.56;86.24
75786;DHT22;64402;44.708;37.644;2023-07-24T01:00:08;22.52;86.23
75786;DHT22;64402;44.708;37.644;2023-07-24T01:02:35;22.48;86.16
75786;DHT22;64402;44.708;37.644;2023-07-24T01:05:01;22.48;85.85
75786;DHT22;64402;44.708;37.644;2023-07-24T01:07:27;22.44;86.29
75786;DHT22;64402;44.708;37.644;2023-07-24T01:09:53;22.39;86.43
75786;DHT22;64402;44.708;37.644;2023-07-24T01:12:31;22.31;86.39
75786;DHT22;64402;44.708;37.644;2023-07-24T01:15:10;22.22;86.67
75786;DHT22;64402;44.708;37.644;2023-07-24T01:17:46;22.16;86.91
75786;DHT22;64402;44.708;37.644;2023-07-24T01:20:15;22.08;86.98
75786;DHT22;64402;44.708;37.644;2023-07-24T01:25:54;22.03;86.79
75786;DHT22;64402;44.708;37.644;2023-07-24T01:28:20;22.04;87.01
75786;DHT22;64402;44.708;37.644;2023-07-24T01:30:46;22.03;86.91
75786;DHT22;64402;44.708;37.644;2023-07-24T01:33:13;22.02;86.64
75786;DHT22;64402;44.708;37.644;2023-07-24T01:35:42;22.03;86.57
75786;DHT22;64402;44.708;37.644;2023-07-24T01:38:11;21.99;86.74
75786;DHT22;64402;44.708;37.644;2023-07-24T01:40:41;21.97;86.56
75786;DHT22;64402;44.708;37.644;2023-07-24T01:43:09;21.95;86.36
75786;DHT22;64402;44.708;37.644;2023-07-24T01:45:35;21.93;86.31
75786;DHT22;64402;44.708;37.644;2023-07-24T01:48:03;21.90;85.92
75786;DHT22;64402;44.708;37.644;2023-07-24T01:50:30;21.91;86.27
75786;DHT22;64402;44.708;37.644;2023-07-24T01:52:56;21.89;86.07
75786;DHT22;64402;44.708;37.644;2023-07-24T01:55:22;21.87;86.02
75786;DHT22;64402;44.708;37.644;2023-07-24T01:57:48;21.87;85.88
75786;DHT22;64402;44.708;37.644;2023-07-24T02:00:15;21.81;86.05
75786;DHT22;64402;44.708;37.644;2023-07-24T02:02:41;21.80;85.97
75786;DHT22;64402;44.708;37.644;2023-07-24T02:05:07;21.81;85.80
75786;DHT22;64402;44.708;37.644;2023-07-24T02:07:33;21.81;85.71
75786;DHT22;64402;44.708;37.644;2023-07-24T02:09:59;21.79;85.67
75786;DHT22;64402;44.708;37.644;2023-07-24T02:12:26;21.79;85.81
75786;DHT22;64402;44.708;37.644;2023-07-24T02:14:52;21.78;85.84
75786;DHT22;64402;44.708;37.644;2023-07-24T02:17:19;21.78;85.87
75786;DHT22;64402;44.708;37.644;2023-07-24T02:19:45;21.79;85.90
75786;DHT22;64402;44.708;37.644;2023-07-24T02:22:11;21.81;85.90
75786;DHT22;64402;44.708;37.644;2023-07-24T02:24:38;21.82;85.70
75786;DHT22;64402;44.708;37.644;2023-07-24T02:27:05;21.89;85.58
75786;DHT22;64402;44.708;37.644;2023-07-24T02:29:31;21.88;85.33
75786;DHT22;64402;44.708;37.644;2023-07-24T02:31:58;21.90;85.26
75786;DHT22;64402;44.708;37.644;2023-07-24T02:34:24;21.92;85.21
75786;DHT22;64402;44.708;37.644;2023-07-24T02:36:53;21.95;85.08
75786;DHT22;64402;44.708;37.644;2023-07-24T02:39:19;21.98;84.73
75786;DHT22;64402;44.708;37.644;2023-07-24T02:41:47;22.01;84.30
75786;DHT22;64402;44.708;37.644;2023-07-24T02:44:14;22.07;84.11
75786;DHT22;64402;44.708;37.644;2023-07-24T02:46:40;22.10;83.57
75786;DHT22;64402;44.708;37.644;2023-07-24T02:49:06;22.14;83.48
75786;DHT22;64402;44.708;37.644;2023-07-24T02:51:33;22.19;83.23
75786;DHT22;64402;44.708;37.644;2023-07-24T02:54:00;22.21;83.28
75786;DHT22;64402;44.708;37.644;2023-07-24T02:56:26;22.26;83.42
75786;DHT22;64402;44.708;37.644;2023-07-24T02:58:52;22.27;83.07
75786;DHT22;64402;44.708;37.644;2023-07-24T03:01:18;22.31;83.08
75786;DHT22;64402;44.708;37.644;2023-07-24T03:03:44;22.35;82.73
75786;DHT22;64402;44.708;37.644;2023-07-24T03:06:10;22.37;82.72
75786;DHT22;64402;44.708;37.644;2023-07-24T03:08:36;22.40;82.76
75786;DHT22;64402;44.708;37.644;2023-07-24T03:11:04;22.40;82.93
75786;DHT22;64402;44.708;37.644;2023-07-24T03:13:31;22.41;82.67
75786;DHT22;64402;44.708;37.644;2023-07-24T03:15:58;22.39;82.88
75786;DHT22;64402;44.708;37.644;2023-07-24T03:18:24;22.36;82.87
75786;DHT22;64402;44.708;37.644;2023-07-24T03:20:51;22.38;82.65
75786;DHT22;64402;44.708;37.644;2023-07-24T03:23:17;22.36;82.75
75786;DHT22;64402;44.708;37.644;2023-07-24T03:25:44;22.39;82.68
75786;DHT22;64402;44.708;37.644;2023-07-24T03:28:10;22.44;82.64
75786;DHT22;64402;44.708;37.644;2023-07-24T03:30:36;22.53;82.13
75786;DHT22;64402;44.708;37.644;2023-07-24T03:33:02;22.61;81.92
75786;DHT22;64402;44.708;37.644;2023-07-24T03:35:28;22.64;81.58
75786;DHT22;64402;44.708;37.644;2023-07-24T03:37:54;22.70;80.65
75786;DHT22;64402;44.708;37.644;2023-07-24T03:40:20;22.69;79.74
75786;DHT22;64402;44.708;37.644;2023-07-24T03:42:46;22.69;79.58
75786;DHT22;64402;44.708;37.644;2023-07-24T03:45:12;22.70;79.30
75786;DHT22;64402;44.708;37.644;2023-07-24T03:47:39;22.69;79.22
75786;DHT22;64402;44.708;37.644;2023-07-24T03:50:05;22.64;78.83
75786;DHT22;64402;44.708;37.644;2023-07-24T03:52:31;22.63;78.59
75786;DHT22;64402;44.708;37.644;2023-07-24T03:54:57;22.62;78.59
75786;DHT22;64402;44.708;37.644;2023-07-24T03:57:23;22.64;78.85
75786;DHT22;64402;44.708;37.644;2023-07-24T03:59:49;22.69;79.04
75786;DHT22;64402;44.708;37.644;2023-07-24T04:03:18;22.73;78.05
75786;DHT22;64402;44.708;37.644;2023-07-24T04:05:47;22.85;78.31
75786;DHT22;64402;44.708;37.644;2023-07-24T04:08:13;22.97;77.27
75786;DHT22;64402;44.708;37.644;2023-07-24T04:10:39;23.09;76.82
75786;DHT22;64402;44.708;37.644;2023-07-24T04:13:05;23.23;76.61
75786;DHT22;64402;44.708;37.644;2023-07-24T04:15:31;23.32;76.41
75786;DHT22;64402;44.708;37.644;2023-07-24T04:17:57;23.39;75.25
75786;DHT22;64402;44.708;37.644;2023-07-24T04:20:24;23.40;75.44
75786;DHT22;64402;44.708;37.644;2023-07-24T04:22:50;23.42;74.76
75786;DHT22;64402;44.708;37.644;2023-07-24T04:25:16;23.43;75.14
75786;DHT22;64402;44.708;37.644;2023-07-24T04:27:42;23.47;75.38
75786;DHT22;64402;44.708;37.644;2023-07-24T04:30:09;23.57;75.41
75786;DHT22;64402;44.708;37.644;2023-07-24T04:32:35;23.65;74.26
75786;DHT22;64402;44.708;37.644;2023-07-24T04:35:01;23.70;73.91
75786;DHT22;64402;44.708;37.644;2023-07-24T04:37:28;23.75;74.37
75786;DHT22;64402;44.708;37.644;2023-07-24T04:39:54;23.80;73.03
75786;DHT22;64402;44.708;37.644;2023-07-24T04:42:20;23.86;71.81
75786;DHT22;64402;44.708;37.644;2023-07-24T04:44:47;23.87;72.16
75786;DHT22;64402;44.708;37.644;2023-07-24T04:47:13;23.89;71.16
75786;DHT22;64402;44.708;37.644;2023-07-24T04:49:39;23.82;71.49
75786;DHT22;64402;44.708;37.644;2023-07-24T04:52:05;23.83;71.70
75786;DHT22;64402;44.708;37.644;2023-07-24T04:54:31;23.88;70.71
75786;DHT22;64402;44.708;37.644;2023-07-24T04:56:58;23.96;71.07
75786;DHT22;64402;44.708;37.644;2023-07-24T04:59:24;24.13;70.23
75786;DHT22;64402;44.708;37.644;2023-07-24T05:01:50;24.27;69.81
75786;DHT22;64402;44.708;37.644;2023-07-24T05:04:16;24.32;68.90
75786;DHT22;64402;44.708;37.644;2023-07-24T05:06:42;24.44;68.94
75786;DHT22;64402;44.708;37.644;2023-07-24T05:09:08;24.48;68.84
75786;DHT22;64402;44.708;37.644;2023-07-24T05:11:34;24.43;68.36
75786;DHT22;64402;44.708;37.644;2023-07-24T05:14:00;24.50;67.92
75786;DHT22;64402;44.708;37.644;2023-07-24T05:16:27;24.64;68.17
75786;DHT22;64402;44.708;37.644;2023-07-24T05:18:53;24.79;67.15
75786;DHT22;64402;44.708;37.644;2023-07-24T05:21:19;24.91;66.60
75786;DHT22;64402;44.708;37.644;2023-07-24T05:23:45;25.00;66.62
75786;DHT22;64402;44.708;37.644;2023-07-24T05:26:11;25.05;66.37
75786;DHT22;64402;44.708;37.644;2023-07-24T05:28:37;25.00;64.79
75786;DHT22;64402;44.708;37.644;2023-07-24T05:31:04;24.88;65.78
75786;DHT22;64402;44.708;37.644;2023-07-24T05:33:30;24.84;65.77
75786;DHT22;64402;44.708;37.644;2023-07-24T05:35:58;24.95;65.78
75786;DHT22;64402;44.708;37.644;2023-07-24T05:38:25;25.02;64.53
75786;DHT22;64402;44.708;37.644;2023-07-24T05:40:58;25.15;63.76
75786;DHT22;64402;44.708;37.644;2023-07-24T05:43:26;25.39;62.97
75786;DHT22;64402;44.708;37.644;2023-07-24T05:45:54;25.39;62.86
75786;DHT22;64402;44.708;37.644;2023-07-24T05:48:20;25.29;63.01
75786;DHT22;64402;44.708;37.644;2023-07-24T05:50:47;25.16;63.22
75786;DHT22;64402;44.708;37.644;2023-07-24T05:53:14;25.15;63.16
75786;DHT22;64402;44.708;37.644;2023-07-24T05:55:40;25.33;63.13
75786;DHT22;64402;44.708;37.644;2023-07-24T05:58:06;25.52;62.66
75786;DHT22;64402;44.708;37.644;2023-07-24T06:00:32;25.66;61.69
75786;DHT22;64402;44.708;37.644;2023-07-24T06:02:58;25.75;61.25
75786;DHT22;64402;44.708;37.644;2023-07-24T06:05:25;25.77;61.19
75786;DHT22;64402;44.708;37.644;2023-07-24T06:07:51;25.71;61.10
75786;DHT22;64402;44.708;37.644;2023-07-24T06:10:17;25.75;59.69
75786;DHT22;64402;44.708;37.644;2023-07-24T06:12:43;25.56;60.02
75786;DHT22;64402;44.708;37.644;2023-07-24T06:15:09;25.60;59.41
75786;DHT22;64402;44.708;37.644;2023-07-24T06:17:35;25.71;59.45
75786;DHT22;64402;44.708;37.644;2023-07-24T06:20:01;25.78;58.64
75786;DHT22;64402;44.708;37.644;2023-07-24T06:22:28;25.74;58.34
75786;DHT22;64402;44.708;37.644;2023-07-24T06:24:54;25.82;58.45
75786;DHT22;64402;44.708;37.644;2023-07-24T06:27:20;25.97;57.94
75786;DHT22;64402;44.708;37.644;2023-07-24T06:29:46;26.08;58.00
75786;DHT22;64402;44.708;37.644;2023-07-24T06:32:12;26.18;57.00
75786;DHT22;64402;44.708;37.644;2023-07-24T06:34:38;26.21;56.90
75786;DHT22;64402;44.708;37.644;2023-07-24T06:37:04;26.38;57.00
75786;DHT22;64402;44.708;37.644;2023-07-24T06:39:30;26.69;57.49
75786;DHT22;64402;44.708;37.644;2023-07-24T06:41:56;26.83;54.94
75786;DHT22;64402;44.708;37.644;2023-07-24T06:44:22;26.97;54.81
75786;DHT22;64402;44.708;37.644;2023-07-24T06:46:49;27.05;54.62
75786;DHT22;64402;44.708;37.644;2023-07-24T06:49:15;27.13;53.84
75786;DHT22;64402;44.708;37.644;2023-07-24T06:51:41;27.15;53.17
75786;DHT22;64402;44.708;37.644;2023-07-24T06:54:07;27.24;52.11
75786;DHT22;64402;44.708;37.644;2023-07-24T06:56:33;27.30;51.65
75786;DHT22;64402;44.708;37.644;2023-07-24T06:58:59;27.55;52.69
75786;DHT22;64402;44.708;37.644;2023-07-24T07:01:25;27.69;51.94
75786;DHT22;64402;44.708;37.644;2023-07-24T07:03:51;27.66;51.98
75786;DHT22;64402;44.708;37.644;2023-07-24T07:06:17;27.43;50.77
75786;DHT22;64402;44.708;37.644;2023-07-24T07:08:44;27.12;49.87
75786;DHT22;64402;44.708;37.644;2023-07-24T07:11:10;27.08;51.43
75786;DHT22;64402;44.708;37.644;2023-07-24T07:13:36;27.31;51.29
75786;DHT22;64402;44.708;37.644;2023-07-24T07:16:02;27.53;51.50
75786;DHT22;64402;44.708;37.644;2023-07-24T07:18:28;27.35;51.07
75786;DHT22;64402;44.708;37.644;2023-07-24T07:20:54;27.23;50.78
75786;DHT22;64402;44.708;37.644;2023-07-24T07:23:21;27.30;51.58
75786;DHT22;64402;44.708;37.644;2023-07-24T07:25:48;27.53;50.46
75786;DHT22;64402;44.708;37.644;2023-07-24T07:28:15;27.78;50.44
75786;DHT22;64402;44.708;37.644;2023-07-24T07:30:42;28.02;48.78
75786;DHT22;64402;44.708;37.644;2023-07-24T07:33:09;28.20;48.31
75786;DHT22;64402;44.708;37.644;2023-07-24T07:35:35;28.38;47.22
75786;DHT22;64402;44.708;37.644;2023-07-24T07:38:02;28.35;47.31
75786;DHT22;64402;44.708;37.644;2023-07-24T07:40:29;28.34;46.03
75786;DHT22;64402;44.708;37.644;2023-07-24T07:42:56;28.46;47.79
75786;DHT22;64402;44.708;37.644;2023-07-24T07:45:23;28.73;47.49
75786;DHT22;64402;44.708;37.644;2023-07-24T07:47:49;28.59;46.02
75786;DHT22;64402;44.708;37.644;2023-07-24T07:50:15;28.28;45.92
75786;DHT22;64402;44.708;37.644;2023-07-24T07:52:41;28.41;45.95
75786;DHT22;64402;44.708;37.644;2023-07-24T07:55:08;28.37;46.42
75786;DHT22;64402;44.708;37.644;2023-07-24T07:57:35;28.25;46.95
75786;DHT22;64402;44.708;37.644;2023-07-24T08:00:03;28.26;46.38
75786;DHT22;64402;44.708;37.644;2023-07-24T08:02:29;28.41;46.30
75786;DHT22;64402;44.708;37.644;2023-07-24T08:04:55;28.56;45.94
75786;DHT22;64402;44.708;37.644;2023-07-24T08:07:21;28.71;45.28
75786;DHT22;64402;44.708;37.644;2023-07-24T08:09:47;29.00;45.38
75786;DHT22;64402;44.708;37.644;2023-07-24T08:12:13;29.32;44.70
75786;DHT22;64402;44.708;37.644;2023-07-24T08:14:39;29.47;44.22
75786;DHT22;64402;44.708;37.644;2023-07-24T08:17:05;29.56;44.06
75786;DHT22;64402;44.708;37.644;2023-07-24T08:19:31;29.63;42.87
75786;DHT22;64402;44.708;37.644;2023-07-24T08:21:57;29.65;42.00
75786;DHT22;64402;44.708;37.644;2023-07-24T08:24:24;29.38;41.57
75786;DHT22;64402;44.708;37.644;2023-07-24T08:26:50;29.26;42.71
75786;DHT22;64402;44.708;37.644;2023-07-24T08:29:16;29.23;42.73
75786;DHT22;64402;44.708;37.644;2023-07-24T08:31:42;29.24;42.33
75786;DHT22;64402;44.708;37.644;2023-07-24T08:34:09;29.34;42.39
75786;DHT22;64402;44.708;37.644;2023-07-24T08:36:35;29.35;41.17
75786;DHT22;64402;44.708;37.644;2023-07-24T08:39:03;29.47;41.88
75786;DHT22;64402;44.708;37.644;2023-07-24T08:41:29;29.64;40.88
75786;DHT22;64402;44.708;37.644;2023-07-24T08:43:58;29.95;40.29
75786;DHT22;64402;44.708;37.644;2023-07-24T08:46:25;29.94;39.77
75786;DHT22;64402;44.708;37.644;2023-07-24T08:48:51;29.91;40.92
75786;DHT22;64402;44.708;37.644;2023-07-24T08:51:18;30.05;40.49
75786;DHT22;64402;44.708;37.644;2023-07-24T08:53:46;30.01;38.72
75786;DHT22;64402;44.708;37.644;2023-07-24T08:56:13;30.02;40.65
75786;DHT22;64402;44.708;37.644;2023-07-24T08:58:40;30.22;40.49
75786;DHT22;64402;44.708;37.644;2023-07-24T09:01:07;30.61;39.68
75786;DHT22;64402;44.708;37.644;2023-07-24T09:03:35;30.63;38.98
75786;DHT22;64402;44.708;37.644;2023-07-24T09:06:02;30.00;38.87
75786;DHT22;64402;44.708;37.644;2023-07-24T09:08:33;30.76;37.21
75786;DHT22;64402;44.708;37.644;2023-07-24T09:11:01;32.82;33.56
75786;DHT22;64402;44.708;37.644;2023-07-24T09:13:28;33.70;31.81
75786;DHT22;64402;44.708;37.644;2023-07-24T09:15:54;33.21;32.72
75786;DHT22;64402;44.708;37.644;2023-07-24T09:18:21;35.16;29.80
75786;DHT22;64402;44.708;37.644;2023-07-24T09:20:48;35.89;27.39
75786;DHT22;64402;44.708;37.644;2023-07-24T09:23:14;36.14;27.95
75786;DHT22;64402;44.708;37.644;2023-07-24T09:25:43;37.45;26.91
75786;DHT22;64402;44.708;37.644;2023-07-24T09:30:37;37.18;25.37
75786;DHT22;64402;44.708;37.644;2023-07-24T09:33:03;36.19;27.74
75786;DHT22;64402;44.708;37.644;2023-07-24T09:35:29;37.01;26.06
75786;DHT22;64402;44.708;37.644;2023-07-24T09:38:07;37.75;23.61
75786;DHT22;64402;44.708;37.644;2023-07-24T09:40:46;39.27;21.32
75786;DHT22;64402;44.708;37.644;2023-07-24T09:43:17;40.57;19.07
75786;DHT22;64402;44.708;37.644;2023-07-24T09:45:44;41.49;19.39
75786;DHT22;64402;44.708;37.644;2023-07-24T09:48:14;42.29;18.60
75786;DHT22;64402;44.708;37.644;2023-07-24T09:50:42;41.86;19.52
75786;DHT22;64402;44.708;37.644;2023-07-24T09:53:43;41.59;18.72
75786;DHT22;64402;44.708;37.644;2023-07-24T09:56:10;42.09;18.79
75786;DHT22;64402;44.708;37.644;2023-07-24T09:58:38;43.22;17.35
75786;DHT22;64402;44.708;37.644;2023-07-24T10:01:06;42.41;18.73
75786;DHT22;64402;44.708;37.644;2023-07-24T10:03:39;41.06;19.63
75786;DHT22;64402;44.708;37.644;2023-07-24T10:06:05;40.84;20.24
75786;DHT22;64402;44.708;37.644;2023-07-24T10:08:31;42.04;19.81
75786;DHT22;64402;44.708;37.644;2023-07-24T10:11:01;43.25;17.54
75786;DHT22;64402;44.708;37.644;2023-07-24T10:13:27;43.46;16.90
75786;DHT22;64402;44.708;37.644;2023-07-24T10:15:54;43.86;16.39
75786;DHT22;64402;44.708;37.644;2023-07-24T10:18:27;43.85;16.35
75786;DHT22;64402;44.708;37.644;2023-07-24T10:21:25;41.48;19.35
75786;DHT22;64402;44.708;37.644;2023-07-24T10:23:51;41.80;18.79
75786;DHT22;64402;44.708;37.644;2023-07-24T10:26:23;41.51;19.20
75786;DHT22;64402;44.708;37.644;2023-07-24T10:28:50;42.01;19.05
75786;DHT22;64402;44.708;37.644;2023-07-24T10:31:26;43.35;17.26
75786;DHT22;64402;44.708;37.644;2023-07-24T10:33:53;40.57;20.17
75786;DHT22;64402;44.708;37.644;2023-07-24T10:36:21;38.18;22.68
75786;DHT22;64402;44.708;37.644;2023-07-24T10:38:53;39.95;20.93
75786;DHT22;64402;44.708;37.644;2023-07-24T10:41:20;42.06;18.72
75786;DHT22;64402;44.708;37.644;2023-07-24T10:43:50;43.52;17.11
75786;DHT22;64402;44.708;37.644;2023-07-24T10:46:18;44.43;16.05
75786;DHT22;64402;44.708;37.644;2023-07-24T10:48:50;41.28;19.09
75786;DHT22;64402;44.708;37.644;2023-07-24T10:51:16;39.51;21.93
75786;DHT22;64402;44.708;37.644;2023-07-24T10:53:46;40.65;19.86
75786;DHT22;64402;44.708;37.644;2023-07-24T10:56:12;42.29;18.47
75786;DHT22;64402;44.708;37.644;2023-07-24T10:58:39;41.47;18.82
75786;DHT22;64402;44.708;37.644;2023-07-24T11:01:06;40.35;19.88
75786;DHT22;64402;44.708;37.644;2023-07-24T11:03:35;39.91;21.25
75786;DHT22;64402;44.708;37.644;2023-07-24T11:06:02;40.87;19.35
75786;DHT22;64402;44.708;37.644;2023-07-24T11:08:29;41.55;18.28
75786;DHT22;64402;44.708;37.644;2023-07-24T11:10:57;41.63;18.98
75786;DHT22;64402;44.708;37.644;2023-07-24T11:13:25;42.30;17.56
75786;DHT22;64402;44.708;37.644;2023-07-24T11:15:53;43.20;16.10
75786;DHT22;64402;44.708;37.644;2023-07-24T11:18:20;44.08;14.74
75786;DHT22;64402;44.708;37.644;2023-07-24T11:20:50;44.42;14.86
75786;DHT22;64402;44.708;37.644;2023-07-24T11:23:17;44.65;14.68
75786;DHT22;64402;44.708;37.644;2023-07-24T11:25:44;44.55;14.64
75786;DHT22;64402;44.708;37.644;2023-07-24T11:28:12;44.51;14.20
75786;DHT22;64402;44.708;37.644;2023-07-24T11:30:39;44.41;14.76
75786;DHT22;64402;44.708;37.644;2023-07-24T11:33:07;43.66;15.37
75786;DHT22;64402;44.708;37.644;2023-07-24T11:35:34;42.06;18.08
75786;DHT22;64402;44.708;37.644;2023-07-24T11:38:02;40.43;19.92
75786;DHT22;64402;44.708;37.644;2023-07-24T11:40:36;42.36;17.33
75786;DHT22;64402;44.708;37.644;2023-07-24T11:43:03;42.45;16.70
75786;DHT22;64402;44.708;37.644;2023-07-24T11:45:30;43.33;15.37
75786;DHT22;64402;44.708;37.644;2023-07-24T11:47:57;43.97;15.00
75786;DHT22;64402;44.708;37.644;2023-07-24T11:50:23;44.82;14.39
75786;DHT22;64402;44.708;37.644;2023-07-24T11:52:51;44.05;14.75
75786;DHT22;64402;44.708;37.644;2023-07-24T11:55:20;43.80;15.21
75786;DHT22;64402;44.708;37.644;2023-07-24T11:58:00;43.84;15.90
75786;DHT22;64402;44.708;37.644;2023-07-24T12:00:26;44.33;15.10
75786;DHT22;64402;44.708;37.644;2023-07-24T12:03:01;44.39;14.64
75786;DHT22;64402;44.708;37.644;2023-07-24T12:05:41;44.55;14.58
75786;DHT22;64402;44.708;37.644;2023-07-24T12:08:08;43.35;15.80
75786;DHT22;64402;44.708;37.644;2023-07-24T12:10:37;43.38;15.65
75786;DHT22;64402;44.708;37.644;2023-07-24T12:13:04;44.33;14.49
75786;DHT22;64402;44.708;37.644;2023-07-24T12:15:31;43.57;14.48
75786;DHT22;64402;44.708;37.644;2023-07-24T12:17:59;42.70;16.22
75786;DHT22;64402;44.708;37.644;2023-07-24T12:20:27;41.30;18.38
75786;DHT22;64402;44.708;37.644;2023-07-24T12:22:53;40.65;19.73
75786;DHT22;64402;44.708;37.644;2023-07-24T12:25:20;42.19;17.52
75786;DHT22;64402;44.708;37.644;2023-07-24T12:27:49;44.01;15.35
75786;DHT22;64402;44.708;37.644;2023-07-24T12:30:15;44.51;14.53
75786;DHT22;64402;44.708;37.644;2023-07-24T12:32:41;44.58;14.81
75786;DHT22;64402;44.708;37.644;2023-07-24T12:35:08;45.34;13.94
75786;DHT22;64402;44.708;37.644;2023-07-24T12:37:35;45.64;13.26
75786;DHT22;64402;44.708;37.644;2023-07-24T12:40:02;45.84;12.86
75786;DHT22;64402;44.708;37.644;2023-07-24T12:42:28;46.19;13.06
75786;DHT22;64402;44.708;37.644;2023-07-24T12:44:54;46.00;12.72
75786;DHT22;64402;44.708;37.644;2023-07-24T12:47:20;45.73;13.64
75786;DHT22;64402;44.708;37.644;2023-07-24T12:49:46;43.61;15.06
75786;DHT22;64402;44.708;37.644;2023-07-24T12:52:12;43.37;15.41
75786;DHT22;64402;44.708;37.644;2023-07-24T12:54:38;43.34;15.68
75786;DHT22;64402;44.708;37.644;2023-07-24T12:57:05;44.21;13.58
75786;DHT22;64402;44.708;37.644;2023-07-24T12:59:31;43.33;15.21
75786;DHT22;64402;44.708;37.644;2023-07-24T13:01:57;42.97;14.89
75786;DHT22;64402;44.708;37.644;2023-07-24T13:04:23;42.24;16.27
75786;DHT22;64402;44.708;37.644;2023-07-24T13:06:50;42.70;15.80
75786;DHT22;64402;44.708;37.644;2023-07-24T13:09:16;43.44;15.06
75786;DHT22;64402;44.708;37.644;2023-07-24T13:11:42;42.90;16.19
75786;DHT22;64402;44.708;37.644;2023-07-24T13:14:08;43.31;15.11
75786;DHT22;64402;44.708;37.644;2023-07-24T13:16:34;43.25;14.97
75786;DHT22;64402;44.708;37.644;2023-07-24T13:19:00;43.06;15.45
75786;DHT22;64402;44.708;37.644;2023-07-24T13:21:27;43.08;15.83
75786;DHT22;64402;44.708;37.644;2023-07-24T13:23:52;42.79;16.60
75786;DHT22;64402;44.708;37.644;2023-07-24T13:26:19;42.64;16.93
75786;DHT22;64402;44.708;37.644;2023-07-24T13:28:45;42.15;17.22
75786;DHT22;64402;44.708;37.644;2023-07-24T13:31:16;42.06;17.09
75786;DHT22;64402;44.708;37.644;2023-07-24T13:33:42;41.65;17.67
75786;DHT22;64402;44.708;37.644;2023-07-24T13:36:09;42.49;17.18
75786;DHT22;64402;44.708;37.644;2023-07-24T13:38:35;40.86;19.92
75786;DHT22;64402;44.708;37.644;2023-07-24T13:41:01;41.43;19.18
75786;DHT22;64402;44.708;37.644;2023-07-24T13:43:29;42.22;18.34
75786;DHT22;64402;44.708;37.644;2023-07-24T13:45:55;42.77;16.56
75786;DHT22;64402;44.708;37.644;2023-07-24T13:48:21;43.03;16.44
75786;DHT22;64402;44.708;37.644;2023-07-24T13:50:47;43.06;16.34
75786;DHT22;64402;44.708;37.644;2023-07-24T13:53:13;41.55;18.12
75786;DHT22;64402;44.708;37.644;2023-07-24T13:55:39;42.07;17.64
75786;DHT22;64402;44.708;37.644;2023-07-24T13:58:06;42.69;16.65
75786;DHT22;64402;44.708;37.644;2023-07-24T14:00:32;42.88;16.48
75786;DHT22;64402;44.708;37.644;2023-07-24T14:02:58;42.64;16.99
75786;DHT22;64402;44.708;37.644;2023-07-24T14:05:24;42.81;16.54
75786;DHT22;64402;44.708;37.644;2023-07-24T14:07:50;42.39;16.60
75786;DHT22;64402;44.708;37.644;2023-07-24T14:10:16;43.17;15.85
75786;DHT22;64402;44.708;37.644;2023-07-24T14:12:42;43.35;16.00
75786;DHT22;64402;44.708;37.644;2023-07-24T14:15:09;42.96;16.02
75786;DHT22;64402;44.708;37.644;2023-07-24T14:17:35;43.16;15.95
75786;DHT22;64402;44.708;37.644;2023-07-24T14:20:02;43.35;16.18
75786;DHT22;64402;44.708;37.644;2023-07-24T14:22:29;42.94;16.42
75786;DHT22;64402;44.708;37.644;2023-07-24T14:24:55;43.47;16.05
75786;DHT22;64402;44.708;37.644;2023-07-24T14:27:21;43.34;16.29
75786;DHT22;64402;44.708;37.644;2023-07-24T14:29:47;43.35;16.15
75786;DHT22;64402;44.708;37.644;2023-07-24T14:32:13;43.59;15.93
75786;DHT22;64402;44.708;37.644;2023-07-24T14:34:41;43.62;16.20
75786;DHT22;64402;44.708;37.644;2023-07-24T14:37:07;43.21;16.71
75786;DHT22;64402;44.708;37.644;2023-07-24T14:39:34;42.68;17.31
75786;DHT22;64402;44.708;37.644;2023-07-24T14:42:00;42.45;17.44
75786;DHT22;64402;44.708;37.644;2023-07-24T14:44:26;42.14;17.36
75786;DHT22;64402;44.708;37.644;2023-07-24T14:46:52;42.25;17.12
75786;DHT22;64402;44.708;37.644;2023-07-24T14:49:18;42.04;17.24
75786;DHT22;64402;44.708;37.644;2023-07-24T14:51:44;42.15;17.17
75786;DHT22;64402;44.708;37.644;2023-07-24T14:54:10;42.18;17.46
75786;DHT22;64402;44.708;37.644;2023-07-24T14:56:36;41.78;18.33
75786;DHT22;64402;44.708;37.644;2023-07-24T14:59:02;41.03;18.80
75786;DHT22;64402;44.708;37.644;2023-07-24T15:01:29;41.52;18.19
75786;DHT22;64402;44.708;37.644;2023-07-24T15:03:58;41.51;18.56
75786;DHT22;64402;44.708;37.644;2023-07-24T15:06:24;41.18;18.64
75786;DHT22;64402;44.708;37.644;2023-07-24T15:08:50;40.26;20.09
75786;DHT22;64402;44.708;37.644;2023-07-24T15:11:22;40.36;19.79
75786;DHT22;64402;44.708;37.644;2023-07-24T15:13:49;39.74;20.54
75786;DHT22;64402;44.708;37.644;2023-07-24T15:16:15;39.66;20.88
75786;DHT22;64402;44.708;37.644;2023-07-24T15:18:41;39.92;20.54
75786;DHT22;64402;44.708;37.644;2023-07-24T15:21:08;40.02;20.57